Time;durP1;ratioP1;P1;durP2;ratioP2;P2;SDS_P1;SDS_P2;PMS_P1;PMS_P2;Temp;Humidity;BMP_temperature;BMP_pressure;BME280_temperature;BME280_humidity;BME280_pressure;Samples;Min_cycle;Max_cycle;Signal;HPM_P1;HPM_P2
2022/01/02 00:00:15;;;;;;;0.50;0.50;;;;;;;7.78;74.34;97525.63;29394;227;64009;-61
2022/01/02 00:00:46;;;;;;;0.40;0.40;;;;;;;7.75;74.11;97524.25;29395;209;63005;-63
2022/01/02 00:01:20;;;;;;;0.50;0.50;;;;;;;7.73;74.43;97527.22;29394;288;64009;-65
2022/01/02 00:01:56;;;;;;;0.55;0.55;;;;;;;7.75;74.19;97529.66;29395;259;63005;-64
2022/01/02 00:02:29;;;;;;;0.50;0.50;;;;;;;7.73;74.10;97526.41;29395;198;63009;-65
2022/01/02 00:03:07;;;;;;;0.50;0.50;;;;;;;7.72;74.11;97530.19;29395;227;63010;-64
2022/01/02 00:03:40;;;;;;;0.60;0.60;;;;;;;7.71;74.11;97523.16;29394;199;64009;-64
2022/01/02 00:04:19;;;;;;;0.50;0.50;;;;;;;7.71;74.25;97528.56;29395;231;63016;-65
2022/01/02 00:04:57;;;;;;;0.50;0.50;;;;;;;7.69;74.58;97522.59;29395;211;63009;-65
2022/01/02 00:05:32;;;;;;;0.50;0.50;;;;;;;7.65;74.77;97525.00;29395;261;63004;-63
2022/01/02 00:06:04;;;;;;;0.50;0.50;;;;;;;7.63;75.00;97531.72;29394;259;64008;-65
2022/01/02 00:06:44;;;;;;;0.50;0.50;;;;;;;7.60;74.95;97526.88;29395;208;63004;-65
2022/01/02 00:07:17;;;;;;;0.50;0.50;;;;;;;7.58;74.71;97529.00;29395;203;63016;-64
2022/01/02 00:08:12;;;;;;;0.50;0.50;;;;;;;7.55;75.36;97537.63;29395;230;63005;-64
2022/01/02 00:08:52;;;;;;;0.50;0.50;;;;;;;7.54;75.11;97541.41;29394;203;64009;-63
2022/01/02 00:09:31;;;;;;;0.60;0.60;;;;;;;7.51;75.60;97533.81;29416;222;64005;-63
2022/01/02 00:10:05;;;;;;;0.50;0.50;;;;;;;7.51;75.68;97533.81;29395;211;63009;-65
2022/01/02 00:10:51;;;;;;;0.50;0.50;;;;;;;7.50;75.63;97537.56;29395;258;63005;-65
2022/01/02 00:11:24;;;;;;;0.50;0.50;;;;;;;7.47;75.56;97538.91;29394;202;64009;-65
2022/01/02 00:12:04;;;;;;;0.50;0.50;;;;;;;7.46;75.98;97539.16;29395;253;63004;-65
2022/01/02 00:12:43;;;;;;;0.50;0.50;;;;;;;7.45;76.16;97534.84;29439;230;63009;-60
2022/01/02 00:13:28;;;;;;;0.50;0.50;;;;;;;7.44;75.86;97534.03;29395;387;63004;-64
2022/01/02 00:14:07;;;;;;;0.50;0.50;;;;;;;7.42;75.92;97530.75;29395;277;63025;-65
2022/01/02 00:14:43;;;;;;;0.50;0.50;;;;;;;7.42;76.28;97529.94;29395;203;63018;-61
2022/01/02 00:15:19;;;;;;;0.50;0.50;;;;;;;7.43;76.01;97539.66;29394;221;64009;-64
2022/01/02 00:15:52;;;;;;;0.50;0.50;;;;;;;7.40;75.77;97536.41;29393;233;64005;-64
2022/01/02 00:16:24;;;;;;;0.50;0.50;;;;;;;7.40;75.94;97539.13;29395;221;63009;-66
2022/01/02 00:16:56;;;;;;;0.50;0.50;;;;;;;7.39;75.77;97532.09;29395;214;63017;-63
2022/01/02 00:17:30;;;;;;;0.50;0.50;;;;;;;7.39;75.74;97537.47;29395;203;63009;-63
2022/01/02 00:18:08;;;;;;;0.50;0.50;;;;;;;7.36;75.46;97532.59;29395;220;63005;-59
2022/01/02 00:18:48;;;;;;;0.50;0.50;;;;;;;7.36;75.71;97537.19;29395;205;63023;-61
2022/01/02 00:19:29;;;;;;;0.50;0.50;;;;;;;7.36;76.22;97535.28;29417;250;63004;-64
2022/01/02 00:20:10;;;;;;;0.50;0.50;;;;;;;7.36;76.00;97538.00;29439;277;63009;-62
2022/01/02 00:20:48;;;;;;;0.50;0.50;;;;;;;7.37;76.46;97533.41;29416;219;64004;-63
2022/01/02 00:21:22;;;;;;;0.50;0.50;;;;;;;7.38;76.09;97535.03;29395;235;63008;-65
2022/01/02 00:21:55;;;;;;;0.50;0.50;;;;;;;7.38;76.10;97535.84;29395;266;63016;-64
2022/01/02 00:22:35;;;;;;;0.50;0.50;;;;;;;7.39;76.34;97534.78;29393;203;64009;-65
2022/01/02 00:23:07;;;;;;;0.50;0.50;;;;;;;7.41;76.37;97537.22;29395;211;63017;-64
2022/01/02 00:23:51;;;;;;;0.50;0.50;;;;;;;7.40;76.02;97532.91;29395;273;63009;-64
2022/01/02 00:24:23;;;;;;;0.50;0.50;;;;;;;7.42;76.32;97535.34;29395;203;63005;-65
2022/01/02 00:24:56;;;;;;;0.50;0.50;;;;;;;7.40;75.84;97524.81;29395;267;63009;-65
2022/01/02 00:25:33;;;;;;;0.50;0.50;;;;;;;7.40;75.93;97531.00;29395;281;63007;-61
2022/01/02 00:26:06;;;;;;;0.50;0.50;;;;;;;7.40;76.18;97525.63;29395;263;63009;-63
2022/01/02 00:26:42;;;;;;;0.50;0.50;;;;;;;7.42;76.03;97527.25;29395;196;63004;-63
2022/01/02 00:27:15;;;;;;;0.50;0.50;;;;;;;7.43;75.86;97520.78;29395;290;63009;-64
2022/01/02 00:27:49;;;;;;;0.50;0.50;;;;;;;7.43;75.96;97521.59;29394;255;64004;-65
2022/01/02 00:28:22;;;;;;;0.50;0.50;;;;;;;7.45;75.75;97526.72;29395;218;63009;-63
2022/01/02 00:28:54;;;;;;;0.50;0.50;;;;;;;7.45;75.72;97514.03;29395;220;63004;-63
2022/01/02 00:29:26;;;;;;;0.50;0.50;;;;;;;7.46;75.60;97514.84;29395;202;63008;-66
2022/01/02 00:29:58;;;;;;;0.50;0.50;;;;;;;7.49;75.47;97508.94;29395;270;63005;-64
2022/01/02 00:30:30;;;;;;;0.50;0.50;;;;;;;7.50;75.61;97510.56;29395;231;63009;-65
2022/01/02 00:31:01;;;;;;;0.55;0.55;;;;;;;7.51;75.37;97506.81;29395;329;63018;-63
2022/01/02 00:31:33;;;;;;;0.50;0.50;;;;;;;7.51;75.69;97504.91;29395;211;63009;-65
2022/01/02 00:32:10;;;;;;;0.50;0.50;;;;;;;7.52;75.57;97501.16;29395;209;63005;-66
2022/01/02 00:32:44;;;;;;;0.50;0.50;;;;;;;7.52;75.27;97503.03;29395;211;63009;-64
2022/01/02 00:33:19;;;;;;;0.50;0.50;;;;;;;7.51;75.56;97502.22;29393;322;64005;-65
2022/01/02 00:33:52;;;;;;;0.57;0.57;;;;;;;7.51;75.22;97506.81;29395;307;63009;-66
2022/01/02 00:34:23;;;;;;;0.50;0.50;;;;;;;7.52;75.16;97508.44;29395;214;63004;-63
2022/01/02 00:34:56;;;;;;;0.50;0.50;;;;;;;7.51;75.22;97506.81;29395;368;63009;-64
2022/01/02 00:35:28;;;;;;;0.50;0.50;;;;;;;7.50;75.54;97505.19;29395;344;63007;-63
2022/01/02 00:35:59;;;;;;;0.60;0.60;;;;;;;7.52;75.33;97511.13;29395;202;63009;-64
2022/01/02 00:36:30;;;;;;;0.50;0.50;;;;;;;7.51;75.46;97507.63;29395;304;63010;-64
2022/01/02 00:37:06;;;;;;;0.50;0.50;;;;;;;7.51;75.60;97512.22;29395;219;63020;-61
2022/01/02 00:37:39;;;;;;;0.50;0.50;;;;;;;7.51;75.53;97512.22;29395;203;63005;-65
2022/01/02 00:38:20;;;;;;;0.60;0.60;;;;;;;7.50;75.73;97510.56;29395;274;63009;-64
2022/01/02 00:38:51;;;;;;;0.50;0.50;;;;;;;7.52;75.68;97511.13;29394;226;64005;-65
2022/01/02 00:39:23;;;;;;;0.50;0.50;;;;;;;7.50;75.61;97521.38;29395;221;63014;-64
2022/01/02 00:39:54;;;;;;;0.50;0.50;;;;;;;7.48;75.81;97518.13;29395;273;63005;-65
2022/01/02 00:40:26;;;;;;;0.50;0.50;;;;;;;7.45;75.61;97518.63;29395;214;63012;-65
2022/01/02 00:41:00;;;;;;;0.50;0.50;;;;;;;7.43;75.77;97520.78;29395;266;63005;-66
2022/01/02 00:42:08;;;;;;;0.50;0.50;;;;;;;7.39;76.18;97526.69;29395;239;63009;-65
2022/01/02 00:42:43;;;;;;;0.50;0.50;;;;;;;7.38;76.13;97524.25;29394;228;64004;-65
2022/01/02 00:43:24;;;;;;;0.50;0.50;;;;;;;7.35;76.73;97520.16;29395;218;63009;-64
2022/01/02 00:44:51;;;;;;;0.50;0.50;;;;;;;7.37;76.20;97523.44;29395;198;63004;-64
2022/01/02 00:45:27;;;;;;;0.50;0.50;;;;;;;7.36;76.23;97518.28;29395;204;63020;-64
2022/01/02 00:46:04;;;;;;;0.50;0.50;;;;;;;7.37;76.33;97528.00;29395;204;63005;-63
2022/01/02 00:46:46;;;;;;;0.50;0.50;;;;;;;7.37;76.11;97523.44;29395;219;63009;-67
2022/01/02 00:47:54;;;;;;;0.50;0.50;;;;;;;7.35;76.39;97520.16;29395;219;63005;-64
2022/01/02 00:48:29;;;;;;;0.50;0.50;;;;;;;7.37;76.48;97523.44;29394;261;64009;-65
2022/01/02 00:49:04;;;;;;;0.50;0.50;;;;;;;7.38;76.43;97525.06;29394;262;64004;-65
2022/01/02 00:49:40;;;;;;;0.50;0.50;;;;;;;7.36;75.93;97521.78;29395;212;63009;-65
2022/01/02 00:50:15;;;;;;;0.60;0.60;;;;;;;7.36;76.33;97524.50;29395;226;63004;-66
2022/01/02 00:51:04;;;;;;;0.50;0.50;;;;;;;7.30;76.25;97517.41;29395;210;63009;-59
2022/01/02 00:51:48;;;;;;;0.60;0.60;;;;;;;7.27;76.13;97512.56;29395;196;63004;-65
2022/01/02 00:52:21;;;;;;;0.50;0.50;;;;;;;7.25;76.45;97520.09;29395;261;63009;-64
2022/01/02 00:52:57;;;;;;;0.50;0.50;;;;;;;7.24;76.86;97517.66;29395;247;63005;-63
2022/01/02 00:53:33;;;;;;;0.50;0.50;;;;;;;7.22;76.62;97520.59;29394;203;64009;-65
2022/01/02 00:54:09;;;;;;;0.60;0.60;;;;;;;7.22;76.79;97511.69;29395;206;63005;-65
2022/01/02 00:54:45;;;;;;;0.60;0.60;;;;;;;7.22;77.17;97509.00;29394;269;64009;-64
2022/01/02 00:55:25;;;;;;;0.50;0.50;;;;;;;7.20;76.82;97511.94;29395;210;63005;-65
2022/01/02 00:55:57;;;;;;;0.55;0.55;;;;;;;7.20;77.39;97506.56;29395;337;63009;-65
2022/01/02 00:56:30;;;;;;;0.50;0.50;;;;;;;7.20;77.16;97500.34;29395;196;63004;-64
2022/01/02 00:57:13;;;;;;;0.50;0.50;;;;;;;7.20;77.11;97506.56;29395;268;63009;-64
2022/01/02 00:57:56;;;;;;;0.50;0.50;;;;;;;7.18;77.19;97500.59;29395;208;63004;-64
2022/01/02 00:58:37;;;;;;;0.70;0.70;;;;;;;7.18;77.62;97507.88;29395;244;63009;-60
2022/01/02 00:59:27;;;;;;;0.40;0.40;;;;;;;7.20;77.30;97505.75;29416;199;64003;-64
2022/01/02 01:00:17;;;;;;;0.50;0.50;;;;;;;7.23;77.29;97510.63;29395;219;63009;-60
2022/01/02 01:00:50;;;;;;;0.50;0.50;;;;;;;7.22;76.86;97504.41;29395;197;63011;-64
2022/01/02 01:01:28;;;;;;;0.50;0.50;;;;;;;7.23;76.80;97508.75;29395;197;63008;-64
2022/01/02 01:02:03;;;;;;;0.60;0.60;;;;;;;7.24;76.95;97506.84;29395;232;63005;-66
2022/01/02 01:02:40;;;;;;;0.40;0.40;;;;;;;7.23;76.91;97505.22;29395;218;63009;-65
2022/01/02 01:03:17;;;;;;;0.60;0.60;;;;;;;7.23;77.29;97506.03;29395;215;63004;-65
2022/01/02 01:03:53;;;;;;;0.50;0.50;;;;;;;7.19;76.83;97494.13;29395;202;63009;-67
2022/01/02 01:04:31;;;;;;;0.50;0.50;;;;;;;7.23;76.89;97505.22;29394;241;64004;-60
2022/01/02 01:05:06;;;;;;;1.20;1.20;;;;;;;7.23;76.85;97500.63;29395;208;63009;-65
2022/01/02 01:05:38;;;;;;;0.50;0.50;;;;;;;7.24;76.71;97496.06;29395;243;63004;-65
2022/01/02 01:06:10;;;;;;;0.50;0.50;;;;;;;7.23;76.88;97492.53;29395;212;63008;-66
2022/01/02 01:06:48;;;;;;;0.50;0.50;;;;;;;7.22;76.95;97490.91;29395;228;63004;-66
2022/01/02 01:07:21;;;;;;;0.50;0.50;;;;;;;7.21;77.01;97497.38;29395;205;63013;-65
2022/01/02 01:07:55;;;;;;;0.50;0.50;;;;;;;7.20;76.99;97500.34;29395;205;63012;-65
2022/01/02 01:08:35;;;;;;;0.50;0.50;;;;;;;7.19;77.01;97488.72;29395;228;63023;-59
2022/01/02 01:09:07;;;;;;;0.50;0.50;;;;;;;7.17;77.34;97498.97;29394;198;64005;-65
2022/01/02 01:09:40;;;;;;;0.52;0.52;;;;;;;7.16;76.95;97494.63;29395;197;63009;-64
2022/01/02 01:10:11;;;;;;;0.50;0.50;;;;;;;7.15;77.30;97494.88;29395;202;63005;-66
2022/01/02 01:10:44;;;;;;;0.60;0.60;;;;;;;7.14;77.25;97490.56;29395;197;63009;-65
2022/01/02 01:11:17;;;;;;;0.50;0.50;;;;;;;7.12;77.34;97490.00;29395;252;63004;-64
2022/01/02 01:11:49;;;;;;;0.50;0.50;;;;;;;7.11;77.37;97496.47;29395;203;63009;-61
2022/01/02 01:12:20;;;;;;;0.50;0.50;;;;;;;7.09;77.51;97493.22;29395;210;63004;-65
2022/01/02 01:12:57;;;;;;;0.50;0.50;;;;;;;7.07;77.26;97491.56;29395;224;63009;-65
2022/01/02 01:13:28;;;;;;;0.60;0.60;;;;;;;7.04;77.65;97502.06;29395;198;63004;-66
2022/01/02 01:14:01;;;;;;;0.60;0.60;;;;;;;7.02;77.53;97499.63;29394;375;64009;-59
2022/01/02 01:14:32;;;;;;;0.50;0.50;;;;;;;6.99;77.05;97496.62;29395;192;63008;-66
2022/01/02 01:15:06;;;;;;;0.50;0.50;;;;;;;6.94;77.50;97501.97;29395;218;63009;-66
2022/01/02 01:15:38;;;;;;;0.50;0.50;;;;;;;6.90;77.43;97500.87;29395;212;63005;-60
2022/01/02 01:16:10;;;;;;;0.50;0.50;;;;;;;6.91;77.55;97497.09;29395;199;63009;-65
2022/01/02 01:16:42;;;;;;;0.50;0.50;;;;;;;6.92;77.73;97498.72;29394;217;64005;-66
2022/01/02 01:17:15;;;;;;;0.50;0.50;;;;;;;6.92;77.54;97491.44;29395;202;63009;-64
2022/01/02 01:17:47;;;;;;;0.50;0.50;;;;;;;6.92;77.37;97494.16;29395;203;63005;-66
2022/01/02 01:18:21;;;;;;;0.50;0.50;;;;;;;6.93;77.40;97494.97;29395;300;63009;-65
2022/01/02 01:18:53;;;;;;;0.50;0.50;;;;;;;6.93;77.59;97490.34;29395;226;63004;-65
2022/01/02 01:19:27;;;;;;;0.50;0.50;;;;;;;6.94;77.34;97496.56;29394;226;64009;-65
2022/01/02 01:20:00;;;;;;;0.50;0.50;;;;;;;6.92;77.55;97493.34;29394;347;64004;-68
2022/01/02 01:20:39;;;;;;;0.50;0.50;;;;;;;6.90;77.79;97495.47;29395;227;63009;-64
2022/01/02 01:21:10;;;;;;;0.50;0.50;;;;;;;6.90;77.56;97498.16;29394;210;64004;-65
2022/01/02 01:21:41;;;;;;;0.50;0.50;;;;;;;6.88;77.78;97492.22;29395;260;63009;-65
2022/01/02 01:22:12;;;;;;;0.50;0.50;;;;;;;6.87;77.89;97493.28;29395;224;63005;-65
2022/01/02 01:22:45;;;;;;;0.50;0.50;;;;;;;6.88;78.13;97489.50;29395;198;63009;-65
2022/01/02 01:23:17;;;;;;;0.50;0.50;;;;;;;6.88;78.06;97486.81;29395;275;63022;-66
2022/01/02 01:23:49;;;;;;;0.57;0.57;;;;;;;6.90;78.41;97484.69;29395;200;63009;-65
2022/01/02 01:24:20;;;;;;;0.50;0.50;;;;;;;6.90;78.22;97484.69;29395;203;63005;-64
2022/01/02 01:24:52;;;;;;;0.50;0.50;;;;;;;6.91;78.54;97472.81;29395;204;63009;-65
2022/01/02 01:25:24;;;;;;;0.60;0.60;;;;;;;6.91;78.48;97481.72;29394;325;64005;-64
2022/01/02 01:25:56;;;;;;;0.50;0.50;;;;;;;6.92;78.29;97477.16;29395;244;63009;-65
2022/01/02 01:26:27;;;;;;;0.50;0.50;;;;;;;6.94;78.36;97488.47;29395;220;63008;-66
2022/01/02 01:26:59;;;;;;;0.60;0.60;;;;;;;6.95;78.42;97480.13;29395;215;63009;-65
2022/01/02 01:27:32;;;;;;;0.60;0.60;;;;;;;6.97;78.00;97485.25;29395;198;63016;-65
2022/01/02 01:28:03;;;;;;;0.50;0.50;;;;;;;6.98;78.17;97481.50;29395;209;63009;-65
2022/01/02 01:28:34;;;;;;;0.50;0.50;;;;;;;6.99;77.92;97477.72;29395;202;63004;-60
2022/01/02 01:29:05;;;;;;;1.75;1.75;;;;;;;7.01;78.12;97481.00;29395;216;63009;-65
2022/01/02 01:29:37;;;;;;;0.50;0.50;;;;;;;7.02;77.85;97483.44;29394;298;64005;-63
2022/01/02 01:30:10;;;;;;;0.50;0.50;;;;;;;7.03;77.75;97476.97;29395;280;63009;-65
2022/01/02 01:30:42;;;;;;;0.50;0.50;;;;;;;7.05;77.57;97476.72;29395;203;63005;-66
2022/01/02 01:31:19;;;;;;;0.50;0.50;;;;;;;7.07;77.46;97485.37;29395;293;63009;-64
2022/01/02 01:31:51;;;;;;;0.50;0.50;;;;;;;7.09;77.27;97483.22;29395;207;63005;-63
2022/01/02 01:32:22;;;;;;;0.50;0.50;;;;;;;7.10;77.24;97479.47;29395;198;63009;-65
2022/01/02 01:32:58;;;;;;;0.50;0.50;;;;;;;7.13;77.50;97483.53;29394;384;64005;-66
2022/01/02 01:33:29;;;;;;;0.50;0.50;;;;;;;7.13;77.40;97481.66;29395;354;63009;-64
2022/01/02 01:34:00;;;;;;;0.50;0.50;;;;;;;7.14;77.45;97485.16;29395;226;63004;-65
2022/01/02 01:34:34;;;;;;;0.50;0.50;;;;;;;7.14;77.54;97477.06;29395;226;63009;-66
2022/01/02 01:35:07;;;;;;;0.50;0.50;;;;;;;7.15;77.64;97470.59;29395;230;63004;-64
2022/01/02 01:35:40;;;;;;;0.50;0.50;;;;;;;7.15;77.08;97476.00;29395;224;63009;-64
2022/01/02 01:36:11;;;;;;;0.50;0.50;;;;;;;7.13;77.40;97468.16;29395;371;63004;-67
2022/01/02 01:36:46;;;;;;;0.60;0.60;;;;;;;7.15;77.47;97473.31;29395;302;63009;-61
2022/01/02 01:37:18;;;;;;;0.52;0.52;;;;;;;7.13;77.21;97473.56;29395;224;63005;-65
2022/01/02 01:37:50;;;;;;;0.50;0.50;;;;;;;7.13;77.26;97473.56;29395;259;63009;-64
2022/01/02 01:38:21;;;;;;;0.50;0.50;;;;;;;7.12;77.05;97465.72;29394;213;64005;-62
2022/01/02 01:38:52;;;;;;;0.50;0.50;;;;;;;7.11;77.23;97475.69;29395;226;63018;-64
2022/01/02 01:39:25;;;;;;;0.50;0.50;;;;;;;7.10;77.16;97463.28;29395;216;63005;-64
2022/01/02 01:39:57;;;;;;;0.50;0.50;;;;;;;7.10;77.26;97468.66;29395;203;63009;-65
2022/01/02 01:40:56;;;;;;;0.50;0.50;;;;;;;7.09;77.17;97466.22;29395;242;63005;-66
2022/01/02 01:41:36;;;;;;;0.60;0.60;;;;;;;7.09;77.15;97467.03;29395;306;63017;-66
2022/01/02 01:42:11;;;;;;;0.50;0.50;;;;;;;7.10;76.84;97474.06;29394;208;64004;-66
2022/01/02 01:42:54;;;;;;;0.50;0.50;;;;;;;7.10;76.81;97467.84;29395;248;63009;-65
2022/01/02 01:44:39;;;;;;;1.30;1.30;;;;;;;7.05;76.91;97465.91;29395;197;63009;-64
2022/01/02 01:46:14;;;;;;;0.60;0.60;;;;;;;7.06;76.67;97464.84;29395;222;63005;-64
2022/01/02 01:46:47;;;;;;;0.50;0.50;;;;;;;7.05;76.59;97460.53;29395;220;63011;-65
2022/01/02 01:47:19;;;;;;;0.50;0.50;;;;;;;7.04;76.70;97472.38;29394;220;64009;-64
2022/01/02 01:48:01;;;;;;;0.50;0.50;;;;;;;7.03;76.85;97471.56;29395;221;63005;-60
2022/01/02 01:48:32;;;;;;;0.50;0.50;;;;;;;7.02;76.99;97474.53;29394;319;64009;-65
2022/01/02 01:49:18;;;;;;;0.50;0.50;;;;;;;7.00;76.90;97473.97;29395;221;63004;-66
2022/01/02 01:49:50;;;;;;;0.50;0.50;;;;;;;6.98;76.82;97470.69;29395;218;63009;-64
2022/01/02 01:50:28;;;;;;;0.50;0.50;;;;;;;6.97;76.95;97474.47;29395;198;63004;-66
2022/01/02 01:51:00;;;;;;;0.50;0.50;;;;;;;6.97;77.34;97474.47;29395;261;63008;-65
2022/01/02 01:51:31;;;;;;;0.50;0.50;;;;;;;6.96;77.15;97472.84;29395;238;63004;-65
2022/01/02 01:52:03;;;;;;;0.50;0.50;;;;;;;6.96;77.34;97472.84;29395;222;63009;-65
2022/01/02 01:52:34;;;;;;;0.50;0.50;;;;;;;6.96;76.99;97472.84;29395;299;63005;-65
2022/01/02 01:53:07;;;;;;;0.50;0.50;;;;;;;6.95;77.26;97469.31;29395;198;63009;-65
2022/01/02 01:53:41;;;;;;;0.50;0.50;;;;;;;6.97;76.97;97469.06;29394;353;64005;-66
2022/01/02 01:54:17;;;;;;;0.50;0.50;;;;;;;6.96;77.14;97468.25;29395;210;63009;-62
2022/01/02 01:54:49;;;;;;;0.50;0.50;;;;;;;6.98;76.68;97459.91;29395;220;63008;-67
2022/01/02 01:55:20;;;;;;;0.50;0.50;;;;;;;7.00;76.19;97463.16;29395;224;63009;-64
2022/01/02 01:55:55;;;;;;;0.50;0.50;;;;;;;6.97;75.95;97469.06;29395;206;63008;-64
2022/01/02 01:56:26;;;;;;;0.50;0.50;;;;;;;6.95;76.37;97455.84;29395;201;63009;-66
2022/01/02 01:56:57;;;;;;;0.50;0.50;;;;;;;6.94;76.26;97465.00;29395;212;63011;-66
2022/01/02 01:57:29;;;;;;;0.50;0.50;;;;;;;6.92;76.68;97456.37;29395;363;63009;-63
2022/01/02 01:58:03;;;;;;;0.50;0.50;;;;;;;6.91;76.48;97460.16;29395;352;63004;-60
2022/01/02 01:58:34;;;;;;;0.50;0.50;;;;;;;6.89;76.86;97462.28;29395;205;63008;-64
2022/01/02 01:59:10;;;;;;;0.50;0.50;;;;;;;6.87;76.98;97463.59;29394;205;64004;-65
2022/01/02 01:59:42;;;;;;;0.50;0.50;;;;;;;6.85;76.92;97460.34;29395;215;63009;-64
2022/01/02 02:00:20;;;;;;;0.50;0.50;;;;;;;6.84;76.92;97464.09;29395;251;63010;-62
2022/01/02 02:00:51;;;;;;;0.50;0.50;;;;;;;6.83;77.12;97465.19;29395;214;63026;-61
2022/01/02 02:01:23;;;;;;;0.50;0.50;;;;;;;6.80;76.95;97471.91;29395;259;63005;-65
2022/01/02 02:01:54;;;;;;;0.50;0.50;;;;;;;6.79;77.29;97466.75;29395;261;63009;-65
2022/01/02 02:02:25;;;;;;;0.50;0.50;;;;;;;6.78;77.06;97467.81;29395;234;63005;-66
2022/01/02 02:02:57;;;;;;;0.50;0.50;;;;;;;6.76;77.44;97469.97;29395;199;63009;-65
2022/01/02 02:03:28;;;;;;;0.50;0.50;;;;;;;6.73;77.15;97464.00;29394;202;64004;-65
2022/01/02 02:03:59;;;;;;;0.50;0.50;;;;;;;6.71;77.21;97463.44;29394;227;64009;-61
2022/01/02 02:04:31;;;;;;;0.50;0.50;;;;;;;6.68;77.45;97466.62;29394;224;64004;-66
2022/01/02 02:05:03;;;;;;;0.50;0.50;;;;;;;6.66;77.37;97462.56;29395;199;63009;-65
2022/01/02 02:05:34;;;;;;;0.50;0.50;;;;;;;6.65;77.31;97469.84;29395;240;63004;-65
2022/01/02 02:06:07;;;;;;;0.50;0.50;;;;;;;6.63;77.66;97463.87;29395;196;63008;-62
2022/01/02 02:06:38;;;;;;;0.50;0.50;;;;;;;6.61;77.54;97460.63;29395;218;63014;-63
2022/01/02 02:07:10;;;;;;;0.50;0.50;;;;;;;6.60;77.88;97467.09;29395;286;63009;-62
2022/01/02 02:07:44;;;;;;;0.50;0.50;;;;;;;6.60;77.98;97459.00;29394;242;64005;-64
2022/01/02 02:08:18;;;;;;;0.50;0.50;;;;;;;6.59;77.74;97462.75;29395;266;63009;-66
2022/01/02 02:08:52;;;;;;;0.50;0.50;;;;;;;6.58;77.90;97463.84;29395;212;63009;-66
2022/01/02 02:09:33;;;;;;;0.50;0.50;;;;;;;6.56;77.79;97457.91;29394;220;64024;-60
2022/01/02 02:10:14;;;;;;;0.50;0.50;;;;;;;6.53;77.83;97458.41;29417;202;63005;-64
2022/01/02 02:10:46;;;;;;;;;;;;;;;6.52;78.17;97456.78;29996;983;6004;-66
2022/01/02 02:11:18;;;;;;;0.60;0.60;;;;;;;6.50;78.21;97453.50;29422;217;63025;-64
2022/01/02 02:11:49;;;;;;;0.50;0.50;;;;;;;6.47;78.19;97454.03;29395;213;63004;-65
2022/01/02 02:12:21;;;;;;;0.50;0.50;;;;;;;6.46;78.24;97447.00;29395;269;63009;-64
2022/01/02 02:12:57;;;;;;;0.50;0.50;;;;;;;6.44;78.18;97453.72;29394;213;64004;-66
2022/01/02 02:13:30;;;;;;;0.60;0.60;;;;;;;6.43;78.09;97452.88;29395;217;63008;-66
2022/01/02 02:14:04;;;;;;;0.50;0.50;;;;;;;6.42;78.58;97443.19;29395;336;63004;-63
2022/01/02 02:14:36;;;;;;;0.57;0.57;;;;;;;6.42;78.54;97439.66;29395;199;63009;-65
2022/01/02 02:15:09;;;;;;;0.50;0.50;;;;;;;6.41;78.47;97443.44;29395;371;63005;-64
2022/01/02 02:15:41;;;;;;;0.50;0.50;;;;;;;6.40;78.55;97442.59;29395;219;63018;-65
2022/01/02 02:16:13;;;;;;;0.50;0.50;;;;;;;6.39;78.44;97438.28;29394;224;64005;-67
2022/01/02 02:16:44;;;;;;;0.50;0.50;;;;;;;6.36;78.45;97436.91;29395;239;63013;-64
2022/01/02 02:17:15;;;;;;;0.50;0.50;;;;;;;6.35;78.47;97434.47;29395;232;63005;-65
2022/01/02 02:17:50;;;;;;;0.50;0.50;;;;;;;6.35;78.87;97429.06;29395;224;63009;-64
2022/01/02 02:18:23;;;;;;;0.50;0.50;;;;;;;6.35;78.91;97434.47;29395;216;63004;-64
2022/01/02 02:18:54;;;;;;;0.50;0.50;;;;;;;6.35;78.59;97439.84;29395;202;63014;-59
2022/01/02 02:19:25;;;;;;;0.50;0.50;;;;;;;6.33;78.72;97441.97;29395;204;63004;-65
2022/01/02 02:19:58;;;;;;;0.50;0.50;;;;;;;6.31;78.78;97434.16;29395;210;63009;-66
2022/01/02 02:20:32;;;;;;;0.50;0.50;;;;;;;6.31;78.71;97431.44;29395;202;63004;-65
2022/01/02 02:21:03;;;;;;;0.50;0.50;;;;;;;6.32;78.90;97429.56;29394;274;64009;-66
2022/01/02 02:21:37;;;;;;;0.50;0.50;;;;;;;6.30;78.74;97431.69;29395;237;63005;-65
2022/01/02 02:22:09;;;;;;;0.60;0.60;;;;;;;6.32;78.91;97429.56;29395;223;63009;-65
2022/01/02 02:22:42;;;;;;;0.50;0.50;;;;;;;6.32;78.57;97425.00;29395;227;63005;-66
2022/01/02 02:23:14;;;;;;;0.50;0.50;;;;;;;6.33;78.57;97425.81;29395;251;63009;-65
2022/01/02 02:23:46;;;;;;;4.87;4.68;;;;;;;6.32;78.50;97421.50;29394;240;64005;-65
2022/01/02 02:24:17;;;;;;;0.50;0.50;;;;;;;6.32;78.61;97426.88;29395;196;63009;-62
2022/01/02 02:24:48;;;;;;;0.50;0.50;;;;;;;6.33;78.88;97420.44;29395;280;63005;-60
2022/01/02 02:25:22;;;;;;;0.50;0.50;;;;;;;6.32;78.64;97424.19;29395;208;63011;-65
2022/01/02 02:25:53;;;;;;;0.60;0.60;;;;;;;6.31;78.60;97419.84;29395;267;63004;-65
2022/01/02 02:26:28;;;;;;;0.50;0.50;;;;;;;6.31;78.93;97414.47;29395;222;63009;-66
2022/01/02 02:26:59;;;;;;;2.78;2.67;;;;;;;6.31;78.81;97415.28;29395;211;63008;-61
2022/01/02 02:27:30;;;;;;;0.93;0.93;;;;;;;6.31;78.66;97427.94;29394;257;64009;-65
2022/01/02 02:28:11;;;;;;;0.50;0.50;;;;;;;6.29;78.77;97424.69;29395;199;63004;-65
2022/01/02 02:28:43;;;;;;;0.50;0.50;;;;;;;6.27;78.59;97416.03;29417;232;63009;-65
2022/01/02 02:29:14;;;;;;;0.50;0.50;;;;;;;6.25;78.60;97421.69;29395;197;63005;-64
2022/01/02 02:29:45;;;;;;;0.60;0.60;;;;;;;6.24;78.61;97416.53;29395;231;63009;-66
2022/01/02 02:30:17;;;;;;;0.60;0.60;;;;;;;6.24;79.09;97417.34;29395;223;63010;-66
2022/01/02 02:30:49;;;;;;;0.50;0.50;;;;;;;6.23;78.93;97413.06;29395;220;63019;-65
2022/01/02 02:31:20;;;;;;;0.50;0.50;;;;;;;6.22;78.94;97414.12;29395;198;63005;-65
2022/01/02 02:31:55;;;;;;;0.50;0.50;;;;;;;6.22;78.72;97419.50;29395;236;63009;-66
2022/01/02 02:32:27;;;;;;;0.60;0.60;;;;;;;6.24;79.15;97416.53;29394;196;64005;-63
2022/01/02 02:33:07;;;;;;;0.50;0.50;;;;;;;6.23;78.89;97420.34;29394;207;64009;-61
2022/01/02 02:33:38;;;;;;;0.50;0.50;;;;;;;6.22;78.72;97416.81;29395;270;63004;-65
2022/01/02 02:34:09;;;;;;;0.50;0.50;;;;;;;6.21;78.58;97409.00;29395;219;63009;-64
2022/01/02 02:34:40;;;;;;;0.50;0.50;;;;;;;6.22;78.87;97413.31;29395;221;63004;-63
2022/01/02 02:35:13;;;;;;;0.60;0.60;;;;;;;6.24;78.74;97416.53;29395;215;63009;-63
2022/01/02 02:35:48;;;;;;;0.60;0.60;;;;;;;6.24;78.75;97406.56;29395;257;63004;-65
2022/01/02 02:36:23;;;;;;;0.50;0.50;;;;;;;6.27;78.33;97410.66;29395;215;63009;-63
2022/01/02 02:36:54;;;;;;;1.02;1.02;;;;;;;6.30;78.55;97410.16;29395;203;63005;-62
2022/01/02 02:37:26;;;;;;;0.50;0.50;;;;;;;6.33;78.43;97398.88;29395;279;63009;-65
2022/01/02 02:37:57;;;;;;;0.50;0.50;;;;;;;6.37;78.14;97408.06;29395;215;63005;-61
2022/01/02 02:38:32;;;;;;;0.50;0.50;;;;;;;6.44;77.71;97406.00;29394;203;64009;-66
2022/01/02 02:39:03;;;;;;;0.50;0.50;;;;;;;6.48;77.29;97400.91;29395;212;63005;-64
2022/01/02 02:39:36;;;;;;;0.50;0.50;;;;;;;6.51;77.22;97401.22;29395;224;63009;-64
2022/01/02 02:40:12;;;;;;;0.50;0.50;;;;;;;6.52;77.33;97408.25;29395;220;63005;-62
2022/01/02 02:40:44;;;;;;;0.50;0.50;;;;;;;6.56;76.48;97403.97;29395;203;63009;-65
2022/01/02 02:41:16;;;;;;;0.50;0.50;;;;;;;6.62;76.68;97402.13;29395;277;63011;-65
2022/01/02 02:41:47;;;;;;;0.50;0.50;;;;;;;6.63;76.13;97403.75;29395;202;63009;-67
2022/01/02 02:42:36;;;;;;;0.50;0.50;;;;;;;6.65;76.29;97410.50;29395;225;63004;-63
2022/01/02 02:43:30;;;;;;;0.50;0.50;;;;;;;6.71;75.85;97409.50;29395;203;63008;-64
2022/01/02 02:44:15;;;;;;;0.50;0.50;;;;;;;6.73;75.87;97404.66;29394;223;64005;-61
2022/01/02 02:44:56;;;;;;;0.80;0.80;;;;;;;6.73;75.95;97404.66;29395;252;63018;-61
2022/01/02 02:49:05;;;;;;;0.50;0.50;;;;;;;6.83;75.30;97397.75;29395;216;63004;-63
2022/01/02 02:49:40;;;;;;;0.60;0.60;;;;;;;6.85;75.57;97398.31;29394;243;64009;-67
2022/01/02 02:50:11;;;;;;;0.60;0.60;;;;;;;6.83;75.60;97397.75;29395;283;63004;-63
2022/01/02 02:50:47;;;;;;;0.50;0.50;;;;;;;6.80;75.40;97388.28;29395;225;63008;-64
2022/01/02 02:51:32;;;;;;;0.50;0.50;;;;;;;6.78;75.81;97395.00;29395;220;63005;-61
2022/01/02 02:52:11;;;;;;;0.50;0.50;;;;;;;6.78;75.69;97389.59;29395;222;63009;-65
2022/01/02 02:52:45;;;;;;;0.60;0.60;;;;;;;6.72;75.67;97384.16;29395;223;63005;-65
2022/01/02 02:53:17;;;;;;;0.50;0.50;;;;;;;6.72;75.48;97397.66;29395;250;63009;-63
2022/01/02 02:53:53;;;;;;;0.50;0.50;;;;;;;6.72;75.68;97386.03;29395;223;63005;-60
2022/01/02 02:54:27;;;;;;;0.50;0.50;;;;;;;6.72;75.89;97386.03;29394;209;64009;-63